Terminal Aerodrome Forecast
Issued by NWS North Platte, NE

Home | Current Version | Previous Version | Text Only | Print | Product List | Glossary On
Versions: 1 2 3 4 5 6 7 8 9 10 11 12 13 14
449
FTUS43 KLBF 062339
TAFLBF
TAF
KLBF 062339Z 0700/0724 29008KT P6SM BKN250
     FM071500 30020G30KT P6SM SCT120
     FM071800 30028G39KT P6SM FEW250=

USA.gov is the U.S. government's official web portal to all federal, state and local government web resources and services.